createdAt,value
2018-05-08T00:00:36.604Z,2.60
2018-05-08T00:03:05.283Z,2.00
2018-05-08T00:05:34.296Z,1.67
2018-05-08T00:08:04.040Z,2.40
2018-05-08T00:10:32.725Z,1.97
2018-05-08T00:13:00.923Z,2.00
2018-05-08T00:15:29.892Z,2.70
2018-05-08T00:17:58.795Z,2.57
2018-05-08T00:20:26.992Z,1.87
2018-05-08T00:22:59.145Z,2.17
2018-05-08T00:25:28.861Z,2.43
2018-05-08T00:27:58.249Z,2.10
2018-05-08T00:30:26.456Z,2.20
2018-05-08T00:32:54.651Z,1.90
2018-05-08T00:35:22.871Z,2.60
2018-05-08T00:37:51.711Z,2.63
2018-05-08T00:40:19.903Z,2.47
2018-05-08T00:42:48.103Z,1.97
2018-05-08T00:45:16.621Z,2.17
2018-05-08T00:47:46.113Z,2.20
2018-05-08T00:50:14.303Z,1.90
2018-05-08T00:52:42.983Z,2.27
2018-05-08T00:55:11.954Z,2.30
2018-05-08T00:57:40.167Z,2.27
2018-05-08T01:00:09.829Z,2.30
2018-05-08T01:02:38.024Z,1.80
2018-05-08T01:05:06.604Z,2.57
2018-05-08T01:07:35.397Z,2.00
2018-05-08T01:10:12.151Z,2.37
2018-05-08T01:12:41.115Z,2.37
2018-05-08T01:15:09.324Z,1.83
2018-05-08T01:17:37.844Z,2.33
2018-05-08T01:20:06.820Z,2.17
2018-05-08T01:22:35.028Z,2.00
2018-05-08T01:25:03.662Z,2.10
2018-05-08T01:27:32.357Z,1.80
2018-05-08T01:30:00.852Z,1.80
2018-05-08T01:32:30.777Z,1.73
2018-05-08T01:34:59.831Z,1.80
2018-05-08T01:37:28.028Z,2.10
2018-05-08T01:40:02.577Z,1.73
2018-05-08T01:42:31.608Z,2.10
2018-05-08T01:44:59.863Z,1.80
2018-05-08T01:47:28.062Z,2.10
2018-05-08T01:49:57.120Z,2.33
2018-05-08T01:52:26.089Z,2.13
2018-05-08T01:54:54.601Z,3.30
2018-05-08T01:57:22.812Z,2.27
2018-05-08T01:59:56.848Z,2.40
2018-05-08T02:02:25.044Z,1.97
2018-05-08T02:05:01.532Z,1.93
2018-05-08T02:07:30.508Z,2.00
2018-05-08T02:09:59.094Z,2.67
2018-05-08T02:12:28.400Z,2.50
2018-05-08T02:14:57.725Z,2.50
2018-05-08T02:17:25.923Z,1.93
2018-05-08T02:19:54.124Z,2.20
2018-05-08T02:22:22.335Z,3.20
2018-05-08T02:24:51.299Z,2.23
2018-05-08T02:27:19.676Z,1.97
2018-05-08T02:29:48.360Z,2.33
2018-05-08T02:32:16.823Z,1.90
2018-05-08T02:34:45.923Z,1.93
2018-05-08T02:37:14.138Z,2.17
2018-05-08T02:39:43.120Z,2.70
2018-05-08T02:42:12.828Z,2.30
2018-05-08T02:44:41.626Z,2.60
2018-05-08T02:47:09.825Z,2.47
2018-05-08T02:49:38.650Z,2.30
2018-05-08T02:52:06.844Z,2.13
2018-05-08T02:54:35.256Z,2.27
2018-05-08T02:57:04.228Z,2.20
2018-05-08T02:59:32.476Z,2.00
2018-05-08T03:02:00.702Z,2.20
2018-05-08T03:04:28.980Z,1.80
2018-05-08T03:06:57.173Z,2.30
2018-05-08T03:09:25.469Z,2.37
2018-05-08T03:11:53.773Z,2.27
2018-05-08T03:14:22.312Z,2.73
2018-05-08T03:16:51.292Z,2.20
2018-05-08T03:19:20.319Z,2.07
2018-05-08T03:21:48.520Z,2.40
2018-05-08T03:24:16.748Z,2.10
2018-05-08T03:26:46.449Z,1.80
2018-05-08T03:29:15.412Z,2.77
2018-05-08T03:31:43.613Z,2.43
2018-05-08T03:34:13.340Z,2.70
2018-05-08T03:36:42.498Z,2.33
2018-05-08T03:39:11.016Z,2.07
2018-05-08T03:41:39.333Z,3.13
2018-05-08T03:44:08.047Z,2.80
2018-05-08T03:46:36.968Z,2.80
2018-05-08T03:49:06.674Z,2.43
2018-05-08T03:51:35.248Z,2.53
2018-05-08T03:54:03.440Z,2.80
2018-05-08T03:56:32.116Z,2.67
2018-05-08T03:59:00.525Z,2.70
2018-05-08T04:01:41.016Z,2.50
2018-05-08T04:04:24.905Z,2.97
2018-05-08T04:07:04.817Z,2.70
2018-05-08T04:09:33.226Z,3.23
2018-05-08T04:12:01.479Z,3.07
2018-05-08T04:14:30.572Z,3.07
2018-05-08T04:16:59.773Z,2.60
2018-05-08T04:19:27.972Z,3.23
2018-05-08T04:21:56.173Z,2.60
2018-05-08T04:24:24.955Z,2.80
2018-05-08T04:26:53.984Z,2.60
2018-05-08T04:29:22.180Z,2.63
2018-05-08T04:31:50.368Z,2.90
2018-05-08T04:34:18.604Z,2.63
2018-05-08T04:36:46.807Z,3.47
2018-05-08T04:39:15.009Z,3.07
2018-05-08T04:41:44.129Z,3.03
2018-05-08T04:44:23.094Z,2.87
2018-05-08T04:46:51.323Z,3.20
2018-05-08T04:49:19.804Z,3.63
2018-05-08T04:51:49.053Z,3.30
2018-05-08T04:54:17.249Z,2.77
2018-05-08T04:56:45.439Z,2.80
2018-05-08T04:59:13.912Z,3.33
2018-05-08T05:01:42.115Z,2.50
2018-05-08T05:04:20.161Z,2.70
2018-05-08T05:06:48.692Z,2.50
2018-05-08T05:09:17.167Z,2.83
2018-05-08T05:11:47.092Z,3.37
2018-05-08T05:14:15.860Z,2.50
2018-05-08T05:16:45.280Z,2.50
2018-05-08T05:19:13.461Z,2.40
2018-05-08T05:21:41.673Z,2.97
2018-05-08T05:24:09.892Z,3.33
2018-05-08T05:26:38.483Z,2.90
2018-05-08T05:29:06.690Z,2.90
2018-05-08T05:31:34.917Z,3.10
2018-05-08T05:34:03.148Z,3.10
2018-05-08T05:36:32.196Z,2.70
2018-05-08T05:39:07.185Z,2.77
2018-05-08T05:41:35.620Z,2.20
2018-05-08T05:44:03.980Z,3.07
2018-05-08T05:46:33.677Z,3.03
2018-05-08T05:49:01.952Z,2.90
2018-05-08T05:51:30.169Z,3.00
2018-05-08T05:53:58.379Z,2.43
2018-05-08T05:56:26.961Z,2.43
2018-05-08T05:58:55.304Z,2.40
2018-05-08T06:01:23.511Z,2.80
2018-05-08T06:03:52.473Z,2.67
2018-05-08T06:06:21.305Z,2.60
2018-05-08T06:08:49.496Z,3.00
2018-05-08T06:11:20.308Z,2.63
2018-05-08T06:13:49.077Z,3.00
2018-05-08T06:16:17.592Z,2.80
2018-05-08T06:18:45.797Z,3.73
2018-05-08T06:21:13.997Z,2.67
2018-05-08T06:23:42.591Z,2.50
2018-05-08T06:26:10.864Z,2.30
2018-05-08T06:28:39.347Z,2.27
2018-05-08T06:31:08.180Z,3.50
2018-05-08T06:33:36.411Z,2.53
2018-05-08T06:36:05.275Z,2.47
2018-05-08T06:38:33.472Z,2.67
2018-05-08T06:41:02.614Z,2.70
2018-05-08T06:43:30.824Z,2.20
2018-05-08T06:45:59.428Z,2.63
2018-05-08T06:48:28.125Z,2.40
2018-05-08T06:50:56.552Z,2.90
2018-05-08T06:53:25.111Z,2.90
2018-05-08T06:55:54.080Z,2.77
2018-05-08T06:58:22.890Z,1.97
2018-05-08T07:00:51.853Z,3.03
2018-05-08T07:03:20.655Z,2.30
2018-05-08T07:05:49.060Z,2.90
2018-05-08T07:08:18.020Z,2.23
2018-05-08T07:10:46.909Z,2.47
2018-05-08T07:13:15.582Z,2.60
2018-05-08T07:15:45.092Z,2.20
2018-05-08T07:18:13.224Z,1.93
2018-05-08T08:42:39.792Z,2.07
2018-05-08T08:45:08.483Z,2.60
2018-05-08T08:47:42.801Z,2.43
2018-05-08T08:50:11.999Z,2.40
2018-05-08T08:52:40.364Z,2.40
2018-05-08T08:55:08.549Z,2.30
2018-05-08T08:57:37.156Z,2.40
2018-05-08T09:00:06.561Z,3.20
2018-05-08T09:02:34.766Z,1.90
2018-05-08T09:05:04.037Z,2.30
2018-05-08T09:07:33.009Z,2.23
2018-05-08T09:10:01.598Z,2.70
2018-05-08T09:12:29.976Z,2.17
2018-05-08T09:14:58.413Z,2.23
2018-05-08T09:17:26.630Z,2.77
2018-05-08T09:19:55.371Z,2.50
2018-05-08T09:22:23.596Z,2.37
2018-05-08T09:24:51.796Z,2.30
2018-05-08T09:27:21.186Z,2.80
2018-05-08T09:29:49.401Z,2.67
2018-05-08T09:32:17.603Z,2.47
2018-05-08T09:34:45.816Z,2.47
2018-05-08T09:37:14.008Z,2.63
2018-05-08T09:39:43.612Z,2.40
2018-05-08T09:42:13.194Z,2.60
2018-05-08T09:44:42.522Z,2.43
2018-05-08T09:47:11.264Z,2.67
2018-05-08T09:49:39.514Z,2.67
2018-05-08T09:52:07.720Z,3.07
2018-05-08T09:54:35.924Z,2.60
2018-05-08T09:57:04.604Z,2.53
2018-05-08T09:59:33.531Z,2.83
2018-05-08T10:02:02.504Z,2.57
2018-05-08T10:04:35.075Z,2.87
2018-05-08T10:07:03.276Z,3.20
2018-05-08T10:09:31.493Z,2.77
2018-05-08T10:11:59.816Z,3.80
2018-05-08T10:14:28.392Z,2.83
2018-05-08T10:16:56.660Z,2.70
2018-05-08T10:19:24.856Z,2.77
2018-05-08T10:21:54.240Z,2.47
2018-05-08T10:24:22.500Z,3.00
2018-05-08T10:26:51.078Z,2.67
2018-05-08T10:29:19.813Z,2.57
2018-05-08T10:31:48.772Z,2.93
2018-05-08T10:34:16.968Z,2.50
2018-05-08T10:36:45.187Z,2.73
2018-05-08T10:39:13.388Z,2.60
2018-05-08T10:41:41.631Z,2.97
2018-05-08T10:44:10.396Z,3.37
2018-05-08T10:46:38.604Z,2.77
2018-05-08T10:49:07.532Z,2.93
2018-05-08T10:51:35.748Z,2.80
2018-05-08T10:54:04.721Z,3.00
2018-05-08T10:56:33.400Z,3.10
2018-05-08T10:59:02.154Z,2.63
2018-05-08T11:01:30.901Z,2.90
2018-05-08T11:03:59.095Z,2.50
2018-05-08T11:06:27.767Z,3.00
2018-05-08T11:08:56.760Z,2.30
2018-05-08T11:11:26.276Z,2.30
2018-05-08T11:13:55.117Z,2.87
2018-05-08T11:16:25.176Z,2.70
2018-05-08T11:18:54.160Z,2.63
2018-05-08T11:21:23.124Z,2.60
2018-05-08T11:23:52.237Z,3.20
2018-05-08T11:26:21.110Z,3.30
2018-05-08T11:28:49.276Z,3.10
2018-05-08T11:31:17.536Z,3.03
2018-05-08T11:33:45.756Z,2.70
2018-05-08T11:36:13.969Z,2.87
2018-05-08T11:38:42.164Z,2.27
2018-05-08T11:41:10.993Z,2.93
2018-05-08T11:43:39.188Z,2.60
2018-05-08T11:46:08.647Z,2.87
2018-05-08T11:48:37.364Z,2.90
2018-05-08T11:51:05.565Z,2.83
2018-05-08T11:53:34.520Z,2.73
2018-05-08T11:56:02.740Z,2.80
2018-05-08T11:58:32.128Z,3.20
2018-05-08T12:01:01.167Z,3.00
2018-05-08T13:25:27.704Z,3.00
2018-05-08T13:27:56.804Z,2.60
2018-05-08T13:30:25.010Z,2.70
2018-05-08T13:32:53.208Z,2.90
2018-05-08T13:35:21.432Z,2.47
2018-05-08T13:37:50.144Z,2.73
2018-05-08T13:40:19.108Z,2.53
2018-05-08T13:42:47.316Z,2.57
2018-05-08T13:45:17.229Z,2.60
2018-05-08T13:47:46.932Z,2.70
2018-05-08T13:50:15.132Z,2.33
2018-05-08T13:52:43.332Z,3.03
2018-05-08T13:55:11.784Z,2.63
2018-05-08T13:57:40.761Z,2.40
2018-05-08T14:00:09.324Z,2.63
2018-05-08T14:02:37.531Z,3.53
2018-05-08T14:05:06.490Z,3.00
2018-05-08T14:07:34.740Z,2.57
2018-05-08T14:10:02.960Z,2.80
2018-05-08T14:12:31.496Z,2.60
2018-05-08T14:15:00.540Z,2.40
2018-05-08T14:17:28.757Z,2.57
2018-05-08T14:19:56.957Z,2.90
2018-05-08T14:22:25.940Z,2.50
2018-05-08T14:24:54.213Z,2.80
2018-05-08T14:27:23.139Z,2.23
2018-05-08T14:29:51.312Z,3.20
2018-05-08T14:32:19.528Z,2.40
2018-05-08T14:34:48.397Z,2.27
2018-05-08T14:37:16.605Z,2.60
2018-05-08T14:39:44.808Z,2.77
2018-05-08T14:42:13.018Z,3.20
2018-05-08T14:44:41.604Z,2.40
2018-05-08T14:47:09.813Z,3.20
2018-05-08T14:49:38.577Z,3.47
2018-05-08T14:52:06.800Z,2.80
2018-05-08T14:54:35.020Z,3.60
2018-05-08T14:57:03.242Z,2.70
2018-05-08T14:59:31.604Z,2.73
2018-05-08T15:01:59.808Z,2.33
2018-05-08T15:04:28.030Z,2.33
2018-05-08T15:06:57.129Z,2.57
2018-05-08T15:09:25.977Z,3.20
2018-05-08T15:11:54.726Z,2.50
2018-05-08T15:14:25.159Z,3.23
2018-05-08T15:16:54.131Z,3.17
2018-05-08T15:19:22.332Z,2.67
2018-05-08T15:21:50.561Z,3.13
2018-05-08T15:24:18.760Z,3.10
2018-05-08T15:26:47.792Z,2.90
2018-05-08T15:29:16.009Z,2.50
2018-05-08T15:31:44.748Z,3.23
2018-05-08T15:34:12.957Z,3.50
2018-05-08T15:36:41.177Z,3.10
2018-05-08T15:39:10.228Z,3.37
2018-05-08T15:41:38.428Z,3.27
2018-05-08T15:44:07.212Z,2.83
2018-05-08T15:46:35.443Z,2.80
2018-05-08T15:49:04.616Z,3.27
2018-05-08T15:51:33.589Z,3.33
2018-05-08T15:54:01.809Z,3.17
2018-05-08T15:56:30.044Z,3.37
2018-05-08T15:58:59.329Z,3.03
2018-05-08T16:01:27.620Z,3.30
2018-05-08T16:03:55.935Z,3.03
2018-05-08T16:06:25.192Z,2.77
2018-05-08T16:08:53.918Z,2.90
2018-05-08T16:11:24.393Z,3.67
2018-05-08T16:13:53.608Z,3.20
2018-05-08T16:16:21.888Z,3.13
2018-05-08T16:18:50.088Z,3.27
2018-05-08T16:21:18.304Z,3.37
2018-05-08T16:23:46.681Z,3.00
2018-05-08T16:26:15.264Z,3.77
2018-05-08T16:28:43.473Z,3.47
2018-05-08T16:31:11.901Z,3.90
2018-05-08T16:33:40.107Z,2.63
2018-05-08T16:36:08.302Z,3.03
2018-05-08T16:38:36.721Z,3.17
2018-05-08T16:41:05.697Z,2.97
2018-05-08T16:43:34.676Z,3.10
2018-05-08T16:46:03.389Z,3.10
2018-05-08T16:48:33.345Z,3.30
2018-05-08T16:51:02.280Z,2.87
2018-05-08T16:53:30.487Z,2.90
2018-05-08T16:55:59.041Z,2.87
2018-05-08T16:58:35.629Z,3.00
2018-05-08T17:01:05.017Z,3.73
2018-05-08T17:03:33.221Z,3.70
2018-05-08T17:06:01.665Z,3.20
2018-05-08T17:08:30.361Z,3.00
2018-05-08T17:10:58.829Z,2.87
2018-05-08T17:13:27.116Z,3.10
2018-05-08T17:15:55.412Z,2.80
2018-05-08T17:18:24.384Z,2.90
2018-05-08T17:20:52.650Z,3.30
2018-05-08T17:23:20.829Z,3.30
2018-05-08T17:25:57.416Z,2.97
2018-05-08T17:28:25.682Z,3.40
2018-05-08T17:30:53.877Z,2.90
2018-05-08T17:33:22.937Z,3.40
2018-05-08T17:35:51.147Z,4.57
2018-05-08T17:38:20.118Z,2.93
2018-05-08T17:40:48.312Z,2.90
2018-05-08T17:43:17.323Z,3.60
2018-05-08T17:45:45.537Z,3.07
2018-05-08T17:48:14.590Z,2.83
2018-05-08T17:50:42.793Z,3.33
2018-05-08T17:53:11.001Z,3.50
2018-05-08T17:55:39.812Z,3.47
2018-05-08T17:58:08.489Z,3.40
2018-05-08T18:00:36.916Z,3.07
2018-05-08T18:03:05.232Z,3.50
2018-05-08T18:05:33.840Z,2.90
2018-05-08T18:08:02.757Z,2.77
2018-05-08T18:10:31.857Z,3.60
2018-05-08T18:13:00.944Z,3.23
2018-05-08T18:15:30.641Z,3.30
2018-05-08T18:17:58.845Z,3.57
2018-05-08T18:20:27.052Z,3.60
2018-05-08T18:22:55.427Z,3.03
2018-05-08T18:25:23.747Z,3.67
2018-05-08T18:27:52.224Z,3.77
2018-05-08T18:30:21.052Z,3.60
2018-05-08T18:32:49.350Z,3.40
2018-05-08T18:35:17.937Z,3.70
2018-05-08T18:37:46.381Z,3.60
2018-05-08T18:40:15.365Z,3.07
2018-05-08T18:42:43.643Z,3.10
2018-05-08T18:45:12.262Z,3.60
2018-05-08T18:47:44.133Z,3.40
2018-05-08T18:50:12.353Z,3.90
2018-05-08T18:52:40.541Z,3.07
2018-05-08T18:55:08.800Z,3.87
2018-05-08T18:57:36.978Z,3.50
2018-05-08T19:00:11.801Z,3.40
2018-05-08T19:02:40.017Z,3.70
2018-05-08T19:05:09.320Z,3.50
2018-05-08T19:07:37.527Z,3.47
2018-05-08T19:10:05.731Z,3.53
2018-05-08T19:12:34.505Z,3.33
2018-05-08T19:15:12.826Z,3.13
2018-05-08T19:17:41.416Z,3.50
2018-05-08T19:20:10.236Z,4.00
2018-05-08T19:22:38.813Z,3.30
2018-05-08T19:25:08.202Z,3.27
2018-05-08T19:27:37.185Z,3.90
2018-05-08T19:30:15.144Z,3.07
2018-05-08T19:32:43.348Z,3.30
2018-05-08T19:35:17.996Z,3.07
2018-05-08T19:37:54.884Z,3.80
2018-05-08T19:40:23.283Z,3.10
2018-05-08T19:42:52.448Z,3.57
2018-05-08T19:45:20.660Z,3.77
2018-05-08T19:47:50.028Z,4.33
2018-05-08T19:50:18.891Z,3.63
2018-05-08T19:52:47.080Z,4.30
2018-05-08T19:55:15.279Z,4.07
2018-05-08T19:57:44.098Z,6.57
2018-05-08T20:00:13.632Z,4.93
2018-05-08T20:02:42.468Z,3.80
2018-05-08T20:05:11.440Z,4.23
2018-05-08T20:07:39.650Z,4.33
2018-05-08T20:10:07.842Z,3.90
2018-05-08T20:12:36.841Z,3.50
2018-05-08T20:15:05.717Z,3.60
2018-05-08T20:17:35.024Z,3.83
2018-05-08T20:20:04.248Z,3.60
2018-05-08T20:22:32.465Z,3.87
2018-05-08T20:25:00.692Z,3.70
2018-05-08T20:27:29.989Z,3.83
2018-05-08T20:29:59.249Z,3.63
2018-05-08T20:32:27.449Z,4.17
2018-05-08T20:34:55.661Z,3.17
2018-05-08T20:37:24.788Z,4.90
2018-05-08T20:39:52.992Z,3.70
2018-05-08T20:42:21.973Z,3.57
2018-05-08T20:44:50.750Z,5.10
2018-05-08T20:47:18.954Z,4.03
2018-05-08T20:49:47.164Z,4.03
2018-05-08T20:52:15.385Z,4.37
2018-05-08T20:54:43.871Z,5.30
2018-05-08T20:57:12.073Z,4.90
2018-05-08T20:59:42.206Z,4.03
2018-05-08T21:02:11.144Z,3.80
2018-05-08T21:04:40.855Z,4.87
2018-05-08T21:07:09.671Z,4.10
2018-05-08T21:09:37.874Z,4.43
2018-05-08T21:12:14.352Z,5.00
2018-05-08T21:14:42.880Z,5.00
2018-05-08T21:17:11.485Z,4.13
2018-05-08T21:19:39.694Z,4.90
2018-05-08T21:22:07.899Z,5.17
2018-05-08T21:24:36.128Z,5.00
2018-05-08T21:27:05.489Z,5.00
2018-05-08T21:29:40.692Z,4.30
2018-05-08T21:32:08.889Z,4.87
2018-05-08T21:34:37.089Z,4.83
2018-05-08T21:37:05.309Z,4.40
2018-05-08T21:39:33.514Z,4.20
2018-05-08T21:42:01.725Z,4.80
2018-05-08T21:44:29.947Z,5.40
2018-05-08T21:46:58.608Z,4.63
2018-05-08T21:49:26.816Z,3.93
2018-05-08T21:51:55.382Z,4.20
2018-05-08T21:54:23.581Z,4.00
2018-05-08T21:56:51.789Z,5.07
2018-05-08T21:59:20.468Z,4.50
2018-05-08T22:01:51.512Z,4.07
2018-05-08T22:04:19.713Z,3.80
2018-05-08T22:06:49.112Z,4.10
2018-05-08T22:09:17.316Z,5.00
2018-05-08T22:11:45.973Z,4.23
2018-05-08T22:14:15.252Z,4.30
2018-05-08T22:16:43.738Z,4.40
2018-05-08T22:19:11.938Z,5.07
2018-05-08T22:21:40.137Z,4.80
2018-05-08T22:24:08.344Z,4.57
2018-05-08T22:26:37.701Z,5.10
2018-05-08T22:29:06.965Z,5.30
2018-05-08T22:31:35.880Z,5.20
2018-05-08T22:34:04.077Z,4.90
2018-05-08T22:36:32.285Z,4.70
2018-05-08T22:39:00.513Z,4.63
2018-05-08T22:41:29.484Z,4.20
2018-05-08T22:43:57.733Z,4.17
2018-05-08T22:46:25.948Z,3.97
2018-05-08T22:48:54.177Z,4.57
2018-05-08T22:51:22.915Z,4.30
2018-05-08T22:53:51.111Z,5.17
2018-05-08T22:56:19.301Z,5.10
2018-05-08T22:58:48.155Z,4.50
2018-05-08T23:01:16.820Z,4.80
2018-05-08T23:03:45.785Z,6.00
2018-05-08T23:06:14.336Z,3.97
2018-05-08T23:08:42.573Z,4.77
2018-05-08T23:11:11.172Z,5.10
2018-05-08T23:13:39.841Z,4.70
2018-05-08T23:16:08.532Z,4.70
2018-05-08T23:18:37.660Z,4.27
2018-05-08T23:21:06.624Z,4.30
2018-05-08T23:23:34.838Z,4.43
2018-05-08T23:26:09.815Z,5.60
2018-05-08T23:28:39.156Z,5.13
2018-05-08T23:31:07.360Z,4.90
2018-05-08T23:33:35.560Z,4.67
2018-05-08T23:36:03.797Z,5.13
2018-05-08T23:38:33.716Z,4.90
2018-05-08T23:41:02.685Z,5.13
2018-05-08T23:43:31.275Z,5.40
2018-05-08T23:45:59.467Z,4.80
2018-05-08T23:48:28.256Z,4.80
2018-05-08T23:50:57.230Z,4.47
2018-05-08T23:53:25.428Z,5.07
2018-05-08T23:55:53.920Z,5.10
2018-05-08T23:58:23.620Z,5.33
